Hauptseite
METAR-TAF:

METAR-TAF

Flughäfen :

Flughafen Del Bajío

León, Mexiko

Breite: 21-00N, Länge: 101-29W, Höhe: 1819 m

Beobachtung

Neuester Wetterbericht von vor 11 Stunden und 15 Minuten, um 19:41 UTC
Wind 8 kt aus West
Temperatur 25°C
Luftfeuchtigkeit 12%
Luftdruck 1022 hPa
Sichtweite: 16.1 km
Leicht bewölkt in der Höhe von 25000 ft

METAR: MMLO 261941Z 27008KT 10SM FEW250 25/M06 A3018 RMK 8/001

Zeit: 00:56 (06:56 UTC)

Prognose

Neuester Wetterbericht von vor 14 Stunden und 11 Minuten, um 16:45 UTC
Gültige Prognose vom 26 um 18 UTC bis 27 um 18 UTC
Wind 10 kt aus Süd/Südwest
Sichtweite: 10 km
Himmel klar
Ab 26 um 2100 UTC
Wind 15 kt aus Südwest
Sichtweite: 10 km
Himmel klar
Ab 27 um 0200 UTC
Wind kt aus Nord
Sichtweite: 10 km
Himmel klar

TAF: MMLO 261645Z 2618/2718 20010KT P6SM SKC FM262100 23015KT P6SM SKC FM270200 00000KT P6SM SKC

Wetterbeobachtungen und Prognosen von mehr als 4000 Flughäfen (METAR und TAF Bericht).

Die verfügbaren Stationen werden durch gelbe und rote Markierungen auf der Karte dargestellt.

Führen Sie die Maus auf sie, um den Namen der Station zu sehen.

Darauf klicken, um die Beobachtung von Wetterbeobachtungen und Prognosen zu sehen.

Um die Karte zu ändern : klicken Sie auf den grünen Tasten mit einem schwarzen Kreuz Zum Vergrößern, auf den grünen Button mit einem Gedankenstrich zu verkleinern, oder auf die grünen Pfeile für benachbarte Karten.


METAR-TAF: